Time;durP1;ratioP1;P1;durP2;ratioP2;P2;SDS_P1;SDS_P2;PMS_P1;PMS_P2;Temp;Humidity;BMP_temperature;BMP_pressure;BME280_temperature;BME280_humidity;BME280_pressure;Samples;Min_cycle;Max_cycle;Signal;HPM_P1;HPM_P2
2022/05/04 06:56:49;;;;;;;;;22.75;21.50;;;;;15.82;100.00;101107.31;3722602;37;20760;-60
2022/05/04 06:59:27;;;;;;;;;21.00;21.00;;;;;15.60;100.00;101119.41;3723183;37;20895;-57
2022/05/04 07:01:58;;;;;;;;;19.25;18.50;;;;;15.38;100.00;101118.63;3723703;38;21015;-61
2022/05/04 07:04:25;;;;;;;;;19.25;19.25;;;;;15.53;100.00;101102.97;3723436;37;20897;-60
2022/05/04 07:06:52;;;;;;;;;22.00;21.25;;;;;15.85;100.00;101102.28;3723831;38;20824;-63
2022/05/04 07:09:18;;;;;;;;;22.00;22.00;;;;;15.76;100.00;101105.38;3723902;38;20744;-60
2022/05/04 07:11:46;;;;;;;;;22.75;22.50;;;;;16.03;100.00;101103.59;3723833;38;20761;-58
2022/05/04 07:14:13;;;;;;;;;22.50;22.50;;;;;15.80;100.00;101114.84;3723850;37;20738;-58
2022/05/04 07:16:40;;;;;;;;;21.50;21.50;;;;;15.49;100.00;101121.63;3723153;37;20924;-57
2022/05/04 07:19:07;;;;;;;;;24.25;24.25;;;;;15.80;100.00;101131.22;3724048;37;20719;-58
2022/05/04 07:21:34;;;;;;;;;24.50;23.50;;;;;15.89;100.00;101122.66;3723756;38;20791;-56
2022/05/04 07:24:02;;;;;;;;;24.00;23.50;;;;;15.50;100.00;101133.38;3723953;37;20905;-55
2022/05/04 07:26:29;;;;;;;;;24.25;24.00;;;;;15.66;100.00;101132.22;3723362;38;20960;-57
2022/05/04 07:28:56;;;;;;;;;28.50;27.75;;;;;15.82;100.00;101143.62;3723803;37;20723;-57
2022/05/04 07:31:23;;;;;;;;;18.00;18.00;;;;;15.74;100.00;101151.97;3724014;38;20815;-57
2022/05/04 07:33:51;;;;;;;;;24.75;23.25;;;;;15.58;100.00;101154.22;3723940;37;20729;-56
2022/05/04 07:36:19;;;;;;;;;25.50;24.25;;;;;15.59;100.00;101150.47;3723885;37;20792;-56
2022/05/04 07:38:46;;;;;;;;;23.50;22.75;;;;;15.75;100.00;101150.09;3723936;38;20852;-57
2022/05/04 07:44:27;;;;;;;;;22.00;22.00;;;;;15.57;100.00;101144.38;3723881;37;20774;-56
2022/05/04 07:46:57;;;;;;;;;18.25;17.50;;;;;15.86;100.00;101153.09;3723893;38;20716;-57
2022/05/04 07:49:23;;;;;;;;;18.25;18.25;;;;;16.00;100.00;101151.25;3723768;38;20708;-57
2022/05/04 07:51:50;;;;;;;;;22.50;22.50;;;;;16.16;100.00;101159.06;3723845;38;20784;-57
2022/05/04 07:54:18;;;;;;;;;21.75;21.75;;;;;15.73;100.00;101165.84;3723291;38;20687;-57
2022/05/04 07:59:11;;;;;;;;;23.25;22.75;;;;;16.05;100.00;101150.66;3723581;37;20793;-57
2022/05/04 08:04:41;;;;;;;;;23.50;22.75;;;;;16.44;100.00;101161.66;3723904;37;20852;-58
2022/05/04 08:07:08;;;;;;;;;23.50;23.00;;;;;16.22;100.00;101151.94;3723125;37;20820;-58
2022/05/04 08:09:36;;;;;;;;;21.00;21.00;;;;;16.57;100.00;101155.37;3723136;38;20808;-58
2022/05/04 08:12:08;;;;;;;;;22.25;21.50;;;;;16.98;100.00;101157.94;3723778;38;20724;-58
2022/05/04 08:14:36;;;;;;;;;25.50;24.75;;;;;17.39;100.00;101149.44;3723819;37;21005;-59
2022/05/04 08:17:05;;;;;;;;;19.00;19.00;;;;;17.47;99.85;101153.84;3723819;37;20704;-57
2022/05/04 08:19:32;;;;;;;;;17.25;16.25;;;;;17.45;95.65;101153.22;3723079;37;20695;-57
2022/05/04 08:21:59;;;;;;;;;21.00;20.75;;;;;17.71;96.25;101153.16;3723084;38;20901;-57
2022/05/04 08:24:27;;;;;;;;;22.25;22.25;;;;;17.53;98.15;101155.72;3723307;37;20787;-56
2022/05/04 08:26:55;;;;;;;;;21.25;19.25;;;;;17.22;99.12;101159.16;3723291;37;20772;-57
2022/05/04 08:29:21;;;;;;;;;21.00;21.00;;;;;17.27;100.00;101150.31;3723927;37;20707;-56
2022/05/04 08:31:49;;;;;;;;;18.50;18.25;;;;;17.53;100.00;101133.84;3723666;37;20730;-57
2022/05/04 08:34:15;;;;;;;;;19.50;18.75;;;;;17.75;95.27;101148.09;3722948;38;20759;-58
2022/05/04 08:36:47;;;;;;;;;19.25;18.50;;;;;18.03;93.71;101139.56;3723710;38;20752;-56
2022/05/04 08:39:18;;;;;;;;;23.25;21.25;;;;;18.24;91.92;101143.84;3723813;37;20683;-57
2022/05/04 08:41:45;;;;;;;;;16.50;16.50;;;;;18.47;90.03;101147.72;3723839;37;20811;-56
2022/05/04 08:44:15;;;;;;;;;17.00;17.00;;;;;18.39;86.91;101126.03;3723188;38;20700;-57
2022/05/04 08:46:44;;;;;;;;;13.25;13.25;;;;;18.70;84.82;101138.09;3723026;38;20733;-57
2022/05/04 08:49:12;;;;;;;;;15.50;14.75;;;;;18.33;82.68;101131.56;3723641;37;20871;-56
2022/05/04 08:51:41;;;;;;;;;14.25;13.50;;;;;18.20;81.68;101137.97;3723784;38;20664;-57
2022/05/04 08:54:10;;;;;;;;;14.00;13.50;;;;;18.26;80.83;101134.34;3723640;37;20701;-59
2022/05/04 08:59:07;;;;;;;;;17.00;15.50;;;;;18.25;82.61;101159.22;3722960;37;20681;-56
2022/05/04 09:01:37;;;;;;;;;11.25;11.00;;;;;18.19;78.21;101145.37;3723901;37;20622;-59
2022/05/04 09:04:05;;;;;;;;;12.00;11.50;;;;;18.34;76.26;101155.16;3723669;38;20680;-57
2022/05/04 09:06:36;;;;;;;;;11.75;11.75;;;;;18.00;75.22;101145.47;3723841;37;20659;-57
2022/05/04 09:09:08;;;;;;;;;11.25;11.00;;;;;17.95;74.97;101142.53;3724001;38;20820;-57
2022/05/04 09:11:43;;;;;;;;;13.00;12.00;;;;;18.12;75.53;101149.19;3723779;38;20579;-57
2022/05/04 09:14:25;;;;;;;;;12.25;12.25;;;;;18.11;78.15;101151.09;3723312;37;20601;-58
2022/05/04 09:16:53;;;;;;;;;12.00;12.00;;;;;18.15;75.84;101133.16;3723956;37;20701;-57
2022/05/04 09:19:21;;;;;;;;;13.00;13.00;;;;;18.50;75.03;101138.19;3723507;38;20753;-58
2022/05/04 09:21:48;;;;;;;;;13.50;13.00;;;;;18.33;73.84;101129.66;3723738;38;20662;-57
2022/05/04 09:24:25;;;;;;;;;12.50;12.50;;;;;18.38;73.97;101129.84;3723925;38;20717;-56
2022/05/04 09:26:56;;;;;;;;;12.75;12.75;;;;;18.62;73.01;101139.22;3724590;37;20745;-56
2022/05/04 09:29:37;;;;;;;;;12.75;12.75;;;;;18.98;71.03;101124.75;3723964;37;20756;-58
2022/05/04 09:32:29;;;;;;;;;12.00;12.00;;;;;19.21;71.95;101117.78;3723791;37;20667;-57
2022/05/04 09:34:56;;;;;;;;;11.00;11.00;;;;;20.04;65.27;101116.16;3723179;37;20656;-55
2022/05/04 09:45:54;;;;;;;;;13.50;12.50;;;;;19.12;61.13;101133.69;3723204;38;20618;-56
2022/05/04 09:48:29;;;;;;;;;13.75;13.75;;;;;18.78;64.98;101149.59;3723736;37;20560;-56
2022/05/04 09:51:08;;;;;;;;;14.25;13.00;;;;;18.69;67.43;101123.53;3723252;37;20550;-57
2022/05/04 09:53:36;;;;;;;;;14.25;13.75;;;;;18.84;66.92;101118.53;3723832;37;20667;-56
2022/05/04 09:56:04;;;;;;;;;13.75;12.50;;;;;18.50;67.28;101117.12;3723666;38;20612;-57
2022/05/04 10:00:59;;;;;;;;;11.25;11.25;;;;;18.45;65.96;101124.31;3724030;37;20687;-58
2022/05/04 10:03:30;;;;;;;;;12.50;11.00;;;;;18.41;61.65;101131.31;3724084;37;20561;-56
2022/05/04 10:06:01;;;;;;;;;11.50;11.50;;;;;18.72;61.70;101103.03;3724682;38;20595;-57
2022/05/04 10:08:28;;;;;;;;;11.00;11.00;;;;;19.01;61.48;101117.97;3724685;38;20667;-57
2022/05/04 10:10:56;;;;;;;;;10.00;10.00;;;;;18.91;57.00;101112.16;3724144;37;20665;-57
2022/05/04 10:13:24;;;;;;;;;9.00;9.00;;;;;19.30;56.12;101113.66;3724119;38;20598;-56
2022/05/04 10:15:54;;;;;;;;;12.25;11.50;;;;;18.94;56.05;101114.44;3723617;38;20576;-57
2022/05/04 10:18:29;;;;;;;;;10.25;10.00;;;;;19.03;54.02;101116.69;3723869;37;20628;-56
2022/05/04 10:21:07;;;;;;;;;10.75;9.00;;;;;19.24;54.84;101095.34;3723393;38;20453;-58
2022/05/04 10:23:40;;;;;;;;;9.00;8.50;;;;;19.23;50.29;101111.00;3724313;37;20455;-56
2022/05/04 10:26:07;;;;;;;;;9.00;9.00;;;;;19.24;46.43;101106.31;3724047;38;20514;-56
2022/05/04 10:30:30;;;;;;;;;9.75;9.75;;;;;19.66;45.27;101101.87;3723864;37;20697;-57
2022/05/04 10:31:35;;;;;;;;;9.75;9.75;;;;;19.69;46.96;101112.41;3724146;38;20497;-59
2022/05/04 10:34:06;;;;;;;;;7.75;7.75;;;;;19.41;48.98;101094.53;3723884;38;20623;-57
2022/05/04 10:36:34;;;;;;;;;10.75;10.75;;;;;19.33;49.13;101107.72;3723770;37;20418;-58
2022/05/04 10:39:06;;;;;;;;;10.25;10.25;;;;;19.56;48.38;101099.66;3723921;38;20565;-57
2022/05/04 10:41:35;;;;;;;;;10.25;10.00;;;;;19.56;47.39;101096.09;3723835;38;20590;-57
2022/05/04 10:44:03;;;;;;;;;11.50;11.50;;;;;19.32;46.08;101123.34;3723107;38;20536;-57
2022/05/04 10:46:32;;;;;;;;;8.50;8.50;;;;;19.24;45.12;101114.56;3723906;37;20569;-58
2022/05/04 10:49:04;;;;;;;;;12.50;12.50;;;;;19.10;44.78;101111.97;3723620;37;20503;-56
2022/05/04 10:51:37;;;;;;;;;8.50;8.50;;;;;18.90;43.53;101102.25;3723809;37;20509;-56
2022/05/04 10:54:11;;;;;;;;;7.50;7.50;;;;;19.05;43.97;101106.31;3723990;37;20502;-58
2022/05/04 10:56:42;;;;;;;;;7.50;7.50;;;;;19.10;42.71;101106.50;3723753;38;20413;-56
2022/05/04 10:59:09;;;;;;;;;9.50;8.75;;;;;19.26;42.01;101101.44;3722986;37;20516;-57
2022/05/04 11:01:39;;;;;;;;;9.00;8.75;;;;;19.07;41.33;101111.59;3723124;37;20406;-57
2022/05/04 11:04:35;;;;;;;;;7.00;7.00;;;;;19.08;43.49;101105.03;3723888;37;20509;-57
2022/05/04 11:07:07;;;;;;;;;10.00;9.50;;;;;19.00;44.84;101094.34;3723860;37;20378;-57
2022/05/04 11:09:47;;;;;;;;;8.75;8.00;;;;;19.15;45.60;101105.81;3723956;37;20621;-55
2022/05/04 11:12:14;;;;;;;;;9.50;9.50;;;;;18.90;46.14;101094.87;3723746;37;20465;-59
2022/05/04 11:14:42;;;;;;;;;9.75;9.50;;;;;18.82;47.53;101085.00;3723018;37;20385;-57
2022/05/04 11:17:14;;;;;;;;;9.75;9.75;;;;;18.88;49.26;101087.91;3723528;38;20419;-57
2022/05/04 11:19:48;;;;;;;;;10.75;10.25;;;;;18.94;48.53;101098.00;3723488;37;20418;-56
2022/05/04 11:22:17;;;;;;;;;9.25;8.50;;;;;18.94;46.84;101081.53;3722097;37;20534;-58
2022/05/04 11:24:44;;;;;;;;;10.00;9.00;;;;;19.10;45.04;101072.72;3723205;38;20366;-56
2022/05/04 11:27:16;;;;;;;;;11.25;11.25;;;;;19.22;43.41;101062.69;3722793;38;20479;-56
2022/05/04 11:29:44;;;;;;;;;8.00;8.00;;;;;19.37;45.20;101074.09;3723758;37;20399;-59
2022/05/04 11:32:19;;;;;;;;;10.00;10.00;;;;;18.98;45.46;101088.25;3723016;38;20373;-56
2022/05/04 11:34:46;;;;;;;;;8.00;7.00;;;;;19.17;46.00;101073.50;3723907;37;20436;-57
2022/05/04 11:37:14;;;;;;;;;9.75;9.25;;;;;19.20;45.67;101063.97;3723826;37;20493;-58
2022/05/04 11:39:42;;;;;;;;;8.25;8.25;;;;;19.23;45.12;101053.38;3723055;38;20527;-57
2022/05/04 11:42:09;;;;;;;;;6.75;6.75;;;;;19.48;45.56;101045.03;3723901;38;20398;-56
2022/05/04 11:44:41;;;;;;;;;7.25;7.25;;;;;19.70;44.18;101059.16;3723831;37;20332;-58
2022/05/04 11:47:10;;;;;;;;;7.25;7.25;;;;;19.89;43.58;101066.25;3723810;38;20632;-57
2022/05/04 11:49:38;;;;;;;;;8.75;8.75;;;;;19.95;40.06;101054.34;3723048;38;20373;-56
2022/05/04 11:52:07;;;;;;;;;7.75;7.75;;;;;19.95;40.51;101065.34;3724600;38;20348;-56
2022/05/04 11:54:35;;;;;;;;;7.00;7.00;;;;;20.09;40.62;101046.75;3725385;37;20424;-56
2022/05/04 11:57:11;;;;;;;;;7.00;7.00;;;;;20.10;40.11;101049.25;3723142;38;20386;-57
2022/05/04 11:59:41;;;;;;;;;6.75;6.75;;;;;20.54;39.83;101041.59;3723723;37;20402;-56
2022/05/04 12:02:09;;;;;;;;;7.00;6.75;;;;;20.48;38.20;101046.13;3723838;38;20431;-56
2022/05/04 12:04:37;;;;;;;;;8.00;8.00;;;;;20.06;40.16;101059.06;3723172;37;20445;-57
2022/05/04 12:07:05;;;;;;;;;8.00;7.00;;;;;19.80;40.59;101062.16;3723245;37;20440;-57
2022/05/04 12:09:32;;;;;;;;;8.50;7.75;;;;;19.63;40.00;101061.16;3723384;38;20470;-57
2022/05/04 12:12:00;;;;;;;;;3.75;3.00;;;;;19.37;41.45;101052.12;3723354;37;20434;-56
2022/05/04 12:14:28;;;;;;;;;6.00;5.75;;;;;19.55;41.21;101029.34;3724209;38;20483;-56
2022/05/04 12:16:56;;;;;;;;;7.00;6.75;;;;;19.75;41.20;101027.19;3723718;38;20377;-57
2022/05/04 12:19:23;;;;;;;;;7.75;7.75;;;;;19.61;40.10;101053.13;3722983;38;20533;-56
2022/05/04 12:21:53;;;;;;;;;5.50;5.50;;;;;19.68;39.30;101039.31;3722969;37;20369;-56
2022/05/04 12:24:21;;;;;;;;;6.00;6.00;;;;;19.76;38.66;101022.50;3723661;37;20375;-57
2022/05/04 12:26:48;;;;;;;;;6.00;6.00;;;;;20.02;38.97;101022.12;3723432;37;20425;-57
2022/05/04 12:34:49;;;;;;;;;6.75;6.75;;;;;19.80;38.72;101032.78;3723771;37;20320;-59
2022/05/04 12:37:16;;;;;;;;;6.75;6.50;;;;;19.87;39.23;101031.84;3723823;37;20347;-58
2022/05/04 12:39:44;;;;;;;;;6.25;6.25;;;;;19.85;39.85;101029.34;3723647;38;20343;-57
2022/05/04 12:42:15;;;;;;;;;7.50;7.50;;;;;19.82;39.12;101018.81;3722920;37;20422;-58
2022/05/04 12:44:53;;;;;;;;;5.75;5.75;;;;;19.83;39.24;101032.31;3723793;37;20472;-57
2022/05/04 12:47:21;;;;;;;;;5.25;5.25;;;;;20.13;38.53;101036.97;3723318;37;20322;-58
2022/05/04 12:49:49;;;;;;;;;5.25;4.50;;;;;19.98;38.02;101020.91;3723543;38;20328;-58
2022/05/04 12:52:17;;;;;;;;;6.00;6.00;;;;;20.28;38.40;101026.34;3722812;38;20567;-57
2022/05/04 12:54:46;;;;;;;;;5.25;5.25;;;;;20.42;37.35;101013.25;3723421;37;20315;-58
2022/05/04 12:57:14;;;;;;;;;5.25;5.25;;;;;20.60;35.79;101009.56;3723670;38;20334;-56
2022/05/04 12:59:44;;;;;;;;;5.00;5.00;;;;;20.41;35.54;101012.41;3723796;37;20313;-57
2022/05/04 13:02:18;;;;;;;;;5.00;5.00;;;;;20.35;36.20;101026.25;3723328;37;20287;-56
2022/05/04 13:04:53;;;;;;;;;5.00;5.00;;;;;20.18;36.61;101001.38;3723875;38;20322;-58
2022/05/04 13:07:24;;;;;;;;;4.75;4.75;;;;;20.11;37.26;100962.16;3723710;37;20383;-57
2022/05/04 13:09:55;;;;;;;;;3.50;3.50;;;;;20.33;36.30;101025.62;3723888;38;20358;-57
2022/05/04 13:12:24;;;;;;;;;3.75;3.75;;;;;20.29;36.76;101033.50;3724506;37;20279;-57
2022/05/04 13:14:55;;;;;;;;;4.00;4.00;;;;;20.43;36.53;101014.94;3723997;37;20431;-57
2022/05/04 13:17:22;;;;;;;;;3.75;3.75;;;;;20.69;36.52;101006.22;3723554;37;20278;-56
2022/05/04 13:19:49;;;;;;;;;4.75;4.75;;;;;20.69;35.07;101017.22;3723755;38;20272;-57
2022/05/04 13:22:16;;;;;;;;;2.00;2.00;;;;;20.35;34.04;101037.22;3724060;37;20399;-62
2022/05/04 13:24:43;;;;;;;;;4.75;4.50;;;;;19.98;34.30;101015.41;3723699;37;20249;-59
2022/05/04 13:27:10;;;;;;;;;4.75;4.75;;;;;20.14;35.30;101027.66;3724233;37;20551;-60
2022/05/04 13:29:37;;;;;;;;;4.25;4.25;;;;;20.35;34.81;101015.25;3724244;38;20397;-60
2022/05/04 13:32:05;;;;;;;;;3.00;3.00;;;;;20.40;33.87;101015.41;3724035;37;20282;-58
2022/05/04 13:34:32;;;;;;;;;3.75;3.75;;;;;20.20;34.13;101031.38;3724267;38;20242;-58
2022/05/04 13:36:59;;;;;;;;;3.50;3.50;;;;;20.02;34.41;101018.53;3724485;38;20341;-57
2022/05/04 13:39:26;;;;;;;;;5.25;4.25;;;;;20.08;34.07;101006.59;3723717;37;20245;-59
2022/05/04 13:41:53;;;;;;;;;2.75;2.00;;;;;20.06;33.71;101012.34;3723976;38;20274;-58
2022/05/04 13:44:21;;;;;;;;;3.00;3.00;;;;;19.98;33.04;101036.56;3723892;37;21336;-62
2022/05/04 13:46:48;;;;;;;;;4.00;4.00;;;;;20.00;32.99;101016.03;3723460;38;20498;-58
2022/05/04 13:49:15;;;;;;;;;3.75;3.25;;;;;20.14;33.57;101011.16;3723281;37;21241;-58
2022/05/04 13:54:28;;;;;;;;;4.75;4.00;;;;;20.59;33.70;101014.22;3723717;37;21221;-58
2022/05/04 13:56:55;;;;;;;;;3.25;3.25;;;;;20.47;33.22;101016.97;3723690;38;21323;-59
2022/05/04 13:59:22;;;;;;;;;3.00;3.00;;;;;20.20;33.19;101015.72;3723866;38;21338;-61
2022/05/04 14:01:49;;;;;;;;;2.25;2.25;;;;;20.26;31.97;101014.78;3723739;38;21238;-58
2022/05/04 14:04:16;;;;;;;;;1.00;1.00;;;;;20.25;33.01;101006.75;3723736;37;21246;-59
2022/05/04 14:06:43;;;;;;;;;2.75;2.75;;;;;20.56;32.96;101020.19;3723737;38;21394;-60
2022/05/04 14:09:10;;;;;;;;;3.00;3.00;;;;;20.60;31.97;101026.06;3723669;37;21271;-60
2022/05/04 14:11:38;;;;;;;;;4.00;3.00;;;;;20.69;31.77;101010.88;3723575;38;21327;-58
2022/05/04 14:16:50;;;;;;;;;3.00;2.50;;;;;20.49;30.81;101019.47;3723642;37;21338;-59
2022/05/04 14:19:18;;;;;;;;;3.50;3.00;;;;;20.41;31.50;101020.66;3723595;38;21244;-56
2022/05/04 14:21:45;;;;;;;;;2.75;2.75;;;;;20.40;30.94;101010.75;3723594;37;21485;-57
2022/05/04 14:24:14;;;;;;;;;2.75;2.75;;;;;20.22;31.50;101016.31;3723612;37;21315;-57
2022/05/04 14:26:43;;;;;;;;;2.00;2.00;;;;;20.16;32.14;101017.25;3723710;38;21213;-58
2022/05/04 14:29:10;;;;;;;;;2.75;2.25;;;;;20.19;32.19;101011.28;3723833;37;21343;-60
2022/05/04 14:31:38;;;;;;;;;2.50;2.50;;;;;20.32;32.10;101019.31;3723105;38;21206;-60
2022/05/04 14:34:05;;;;;;;;;2.50;2.50;;;;;20.33;32.59;101023.72;3723593;37;21181;-59
2022/05/04 14:36:32;;;;;;;;;2.00;2.00;;;;;20.28;31.54;101007.09;3723900;38;21192;-59
2022/05/04 14:39:00;;;;;;;;;3.75;3.00;;;;;20.40;32.69;101007.16;3723690;37;21184;-60
2022/05/04 14:41:27;;;;;;;;;3.00;3.00;;;;;20.58;32.60;101014.47;3723704;37;21200;-60
2022/05/04 14:43:54;;;;;;;;;3.00;3.00;;;;;20.52;31.39;101019.00;3723646;38;21179;-59
2022/05/04 14:46:21;;;;;;;;;3.00;2.25;;;;;20.42;31.51;101027.00;3723759;37;21289;-58
2022/05/04 14:48:47;;;;;;;;;2.75;2.75;;;;;20.30;32.31;101020.59;3723605;38;21260;-61
2022/05/04 14:51:15;;;;;;;;;2.75;2.75;;;;;20.40;32.21;101016.25;3723646;37;21282;-59
2022/05/04 14:54:01;;;;;;;;;3.00;3.00;;;;;20.35;31.47;101015.25;3723799;38;21341;-58
2022/05/04 14:56:28;;;;;;;;;2.00;1.50;;;;;20.49;31.66;101020.31;3723666;38;21136;-60
2022/05/04 15:01:22;;;;;;;;;7.00;7.00;;;;;20.64;31.19;101013.50;3723276;38;21256;-61
2022/05/04 15:06:34;;;;;;;;;3.75;3.75;;;;;20.34;31.30;101024.56;3723686;38;21163;-60
2022/05/04 15:09:04;;;;;;;;;6.00;5.75;;;;;20.35;31.96;101031.72;3723815;38;21111;-62
2022/05/04 15:11:31;;;;;;;;;4.00;4.00;;;;;20.59;31.04;101018.91;3723708;37;21251;-61
2022/05/04 15:13:57;;;;;;;;;1.00;1.00;;;;;20.68;31.11;101026.56;3723070;37;21153;-60
2022/05/04 15:16:24;;;;;;;;;2.50;2.25;;;;;20.77;30.57;101016.03;3723077;38;21226;-60
2022/05/04 15:18:57;;;;;;;;;4.00;4.00;;;;;20.73;30.67;101048.69;3723766;37;21271;-59
2022/05/04 15:21:24;;;;;;;;;3.75;3.75;;;;;20.22;30.48;101031.97;3723746;37;21294;-60
2022/05/04 15:23:51;;;;;;;;;1.75;0.75;;;;;20.17;31.50;101033.50;3723634;37;21180;-61
2022/05/04 15:26:18;;;;;;;;;3.00;3.00;;;;;20.03;31.58;101037.53;3723658;37;21311;-58
2022/05/04 15:28:45;;;;;;;;;3.00;3.00;;;;;20.01;32.09;101036.09;3723432;38;21389;-58
2022/05/04 15:31:12;;;;;;;;;2.00;1.75;;;;;19.91;32.32;101031.16;3723898;38;21303;-59
2022/05/04 15:33:39;;;;;;;;;3.50;3.50;;;;;20.00;32.40;101049.00;3723053;37;21226;-60
2022/05/04 15:36:06;;;;;;;;;2.50;2.50;;;;;20.03;32.64;101040.28;3722960;38;21192;-61
2022/05/04 15:38:33;;;;;;;;;1.50;1.50;;;;;20.02;31.96;101038.59;3723450;37;21275;-62
2022/05/04 15:41:01;;;;;;;;;1.75;1.75;;;;;19.97;32.36;101046.72;3724025;37;21236;-60
2022/05/04 15:43:28;;;;;;;;;9.50;9.50;;;;;20.04;32.51;101041.97;3723601;37;21255;-60
2022/05/04 15:45:55;;;;;;;;;6.50;6.50;;;;;20.07;32.29;101044.25;3723778;37;21116;-60
2022/05/04 15:48:28;;;;;;;;;2.00;2.00;;;;;20.00;31.43;101056.41;3723188;38;21322;-60
2022/05/04 15:50:55;;;;;;;;;0.00;0.00;;;;;20.03;31.86;101067.75;3723646;38;21147;-60
2022/05/04 15:53:22;;;;;;;;;2.00;2.00;;;;;20.02;31.75;101048.75;3723665;37;21231;-59
2022/05/04 15:55:49;;;;;;;;;2.50;1.75;;;;;19.93;31.88;101042.75;3723610;37;21158;-60
2022/05/04 16:00:47;;;;;;;;;3.75;3.75;;;;;19.97;32.47;101045.88;3723526;37;21085;-61
2022/05/04 16:06:04;;;;;;;;;1.25;1.25;;;;;19.84;31.89;101057.87;3724251;37;21175;-62
2022/05/04 16:08:32;;;;;;;;;1.75;1.75;;;;;19.71;32.63;101080.06;3724171;37;21063;-61
2022/05/04 16:10:59;;;;;;;;;5.00;5.00;;;;;19.54;32.52;101068.84;3723974;37;21077;-60
2022/05/04 16:13:27;;;;;;;;;3.75;3.00;;;;;19.46;32.25;101075.47;3726195;38;21051;-60
2022/05/04 16:15:55;;;;;;;;;2.00;2.00;;;;;19.35;32.68;101078.13;3733505;37;20996;-59
2022/05/04 16:23:53;;;;;;;;;5.75;4.75;;;;;18.64;33.70;101081.41;3723884;38;21075;-59
2022/05/04 16:26:20;;;;;;;;;2.50;2.50;;;;;18.52;34.20;101084.84;3723697;38;21140;-60
2022/05/04 16:28:47;;;;;;;;;1.75;1.25;;;;;18.46;33.86;101091.22;3723672;38;21125;-60
2022/05/04 16:31:15;;;;;;;;;1.25;1.25;;;;;18.45;33.62;101086.78;3723665;37;21114;-59
2022/05/04 16:33:42;;;;;;;;;2.00;2.00;;;;;18.43;33.92;101094.37;3723883;38;21109;-62
2022/05/04 16:36:10;;;;;;;;;3.00;3.00;;;;;18.40;33.87;101097.56;3723135;37;21148;-63
2022/05/04 16:38:37;;;;;;;;;3.00;3.00;;;;;18.34;33.74;101095.72;3723713;37;20943;-59
2022/05/04 16:41:05;;;;;;;;;2.00;2.00;;;;;18.28;33.92;101104.81;3723860;38;21054;-60
2022/05/04 16:43:50;;;;;;;;;3.00;3.00;;;;;18.16;34.24;101099.22;3723742;37;21049;-61
2022/05/04 16:46:18;;;;;;;;;1.75;1.75;;;;;18.00;34.67;101107.13;3723068;38;21066;-60
2022/05/04 16:48:46;;;;;;;;;3.00;3.00;;;;;17.83;35.57;101106.78;3723919;38;21103;-60
2022/05/04 16:51:36;;;;;;;;;2.25;2.25;;;;;17.74;35.37;101108.09;3723841;37;21196;-60
2022/05/04 16:54:03;;;;;;;;;1.00;1.00;;;;;17.62;35.48;101102.44;3723846;37;21033;-59
2022/05/04 16:56:30;;;;;;;;;4.00;4.00;;;;;17.57;35.84;101112.34;3724217;37;21290;-59
2022/05/04 16:59:26;;;;;;;;;2.00;2.00;;;;;17.45;35.62;101117.66;3723161;37;21383;-60
2022/05/04 17:01:57;;;;;;;;;2.00;2.00;;;;;17.35;35.61;101115.34;3723962;38;21051;-58
2022/05/04 17:04:28;;;;;;;;;2.00;2.00;;;;;17.23;35.57;101121.69;3724164;38;21084;-60
2022/05/04 17:06:59;;;;;;;;;2.00;2.00;;;;;17.09;35.83;101126.38;3723982;37;21106;-58
2022/05/04 17:09:27;;;;;;;;;2.00;2.00;;;;;17.06;35.88;101138.56;3723860;37;20982;-58
2022/05/04 17:11:54;;;;;;;;;1.50;1.50;;;;;16.96;36.52;101140.06;3723808;38;21099;-59
2022/05/04 17:14:24;;;;;;;;;3.00;2.00;;;;;16.87;36.82;101144.88;3723977;38;20988;-60
2022/05/04 17:16:51;;;;;;;;;3.00;3.00;;;;;16.77;37.46;101152.66;3724036;37;21054;-58
2022/05/04 17:19:19;;;;;;;;;3.00;3.00;;;;;16.63;38.21;101161.91;3723792;37;21277;-58
2022/05/04 17:21:46;;;;;;;;;4.50;4.50;;;;;16.47;39.40;101163.97;3723998;37;20951;-57
2022/05/04 17:24:12;;;;;;;;;6.50;6.50;;;;;16.27;40.00;101163.09;3723428;38;20905;-59
2022/05/04 17:26:42;;;;;;;;;7.00;7.00;;;;;16.01;41.44;101165.75;3723668;38;20975;-58
2022/05/04 17:29:09;;;;;;;;;5.00;4.00;;;;;15.85;41.69;101165.06;3723387;38;20885;-59
2022/05/04 17:31:36;;;;;;;;;5.75;5.75;;;;;15.73;43.42;101172.13;3723030;37;20888;-59
2022/05/04 17:36:51;;;;;;;;;4.00;4.00;;;;;15.40;45.47;101168.38;3724131;38;20927;-61
2022/05/04 17:39:19;;;;;;;;;6.25;5.00;;;;;15.21;46.21;101175.34;3723804;37;20971;-59
2022/05/04 17:41:47;;;;;;;;;2.75;2.75;;;;;15.12;47.07;101182.84;3723797;38;20971;-59
2022/05/04 17:44:15;;;;;;;;;9.50;9.50;;;;;14.97;49.50;101179.41;3723736;37;21050;-58
2022/05/04 17:46:42;;;;;;;;;6.50;6.00;;;;;14.74;50.75;101179.59;3723941;37;20918;-56
2022/05/04 17:49:09;;;;;;;;;5.25;5.25;;;;;14.68;51.85;101185.84;3723844;37;20830;-58
2022/05/04 17:51:36;;;;;;;;;7.00;6.00;;;;;14.51;52.89;101185.28;3723116;37;20880;-56
2022/05/04 17:54:04;;;;;;;;;12.50;10.75;;;;;14.39;55.55;101199.56;3723738;37;20933;-57
2022/05/04 17:56:31;;;;;;;;;7.00;7.00;;;;;14.21;60.38;101200.81;3723130;38;20906;-57
2022/05/04 18:04:30;;;;;;;;;4.25;4.25;;;;;13.56;71.38;101223.41;3723618;38;20823;-59
2022/05/04 18:07:01;;;;;;;;;6.50;6.50;;;;;13.45;72.26;101225.78;3723615;37;20911;-58
2022/05/04 18:09:28;;;;;;;;;6.75;5.75;;;;;13.22;73.95;101221.25;3723757;38;20830;-60
2022/05/04 18:11:55;;;;;;;;;7.50;6.50;;;;;13.13;74.36;101241.34;3723712;38;20820;-57
2022/05/04 18:14:22;;;;;;;;;6.00;6.00;;;;;13.08;74.69;101235.59;3723700;37;20818;-59
2022/05/04 18:16:50;;;;;;;;;8.00;8.00;;;;;13.00;76.11;101243.81;3723073;37;21055;-59
2022/05/04 18:19:17;;;;;;;;;8.75;7.75;;;;;12.86;78.16;101253.63;3723841;38;20892;-59
2022/05/04 18:21:45;;;;;;;;;11.00;10.50;;;;;12.82;80.27;101251.47;3723084;37;20798;-57
2022/05/04 18:24:12;;;;;;;;;13.75;13.25;;;;;12.72;81.12;101251.69;3723540;38;20889;-59
2022/05/04 18:26:40;;;;;;;;;15.25;13.00;;;;;12.64;82.38;101253.63;3723492;37;20842;-58
2022/05/04 18:29:06;;;;;;;;;12.00;11.75;;;;;12.59;82.21;101256.87;3723549;38;21006;-58
2022/05/04 18:31:33;;;;;;;;;12.25;11.75;;;;;12.49;82.96;101264.41;3722887;38;20910;-59
2022/05/04 18:34:00;;;;;;;;;16.75;14.00;;;;;12.36;84.02;101264.16;3723385;37;20816;-58
2022/05/04 18:36:31;;;;;;;;;14.75;14.25;;;;;12.31;86.40;101280.13;3722693;38;21013;-58
2022/05/04 18:38:59;;;;;;;;;16.00;14.75;;;;;12.20;88.20;101286.81;3723641;37;21055;-57
2022/05/04 18:41:26;;;;;;;;;20.50;17.25;;;;;11.99;89.58;101281.97;3723462;38;20871;-58
2022/05/04 18:43:53;;;;;;;;;12.00;12.00;;;;;11.89;90.67;101281.34;3723611;38;20884;-58
2022/05/04 18:46:21;;;;;;;;;11.00;7.75;;;;;11.77;91.80;101289.00;3723545;37;20907;-59
2022/05/04 18:48:48;;;;;;;;;11.25;11.25;;;;;11.60;92.65;101271.88;3722785;37;21027;-58
2022/05/04 18:51:16;;;;;;;;;12.75;12.75;;;;;11.51;94.04;101286.47;3723475;37;20977;-58
2022/05/04 18:53:43;;;;;;;;;12.25;12.25;;;;;11.50;94.91;101286.66;3722834;38;20762;-57
2022/05/04 18:56:10;;;;;;;;;10.00;10.00;;;;;11.35;96.54;101289.22;3723137;37;20871;-58
2022/05/04 18:58:38;;;;;;;;;12.00;12.00;;;;;11.31;97.24;101304.13;3722995;38;20854;-59
2022/05/04 19:03:32;;;;;;;;;10.75;10.00;;;;;11.11;100.00;101290.06;3723557;38;20815;-58
2022/05/04 19:05:59;;;;;;;;;15.75;15.75;;;;;11.15;100.00;101304.97;3722842;38;20851;-57
2022/05/04 19:08:30;;;;;;;;;14.00;13.25;;;;;11.15;100.00;101309.56;3723707;37;20841;-57
2022/05/04 19:10:57;;;;;;;;;14.25;13.50;;;;;11.10;100.00;101299.22;3722943;37;21072;-56
2022/05/04 19:13:25;;;;;;;;;11.50;11.00;;;;;11.08;100.00;101297.69;3722772;38;20885;-56
2022/05/04 19:15:51;;;;;;;;;19.00;18.25;;;;;11.12;100.00;101313.44;3722990;37;20940;-58
2022/05/04 19:18:21;;;;;;;;;14.50;13.75;;;;;11.07;100.00;101307.69;3723669;37;20799;-57
2022/05/04 19:20:48;;;;;;;;;12.25;10.75;;;;;11.09;100.00;101315.66;3723620;38;20826;-57